Terminal Aerodrome Forecast
Issued by NWS Jackson, MS

Current Version | Previous Version | Text Only | Print | Product List | Glossary On
Versions: 1 2 3 4 5 6 7 8 9 10 11 12 13 14
000
FTUS44 KMEG 180500
TAFTUP
TAF
KTUP 180530Z 1806/1906 13002KT P6SM FEW050
     FM180700 14006KT P6SM VCSH BKN035 OVC100
     FM181500 10009KT P6SM VCSH OVC035
      TEMPO 1815/1818 6SM -RA OVC025
     FM182100 07009KT P6SM FEW025 OVC060
     FM190100 10002KT P6SM SKC=

USA.gov is the U.S. government's official web portal to all federal, state and local government web resources and services.